CYHU/YHU METAR and TAF weather

Enter ICAO airport designator
Station Type Date Time Source
CYHU METAR 2018/12/13 15:00 UTC NOAA

CYHU 131500Z AUTO 03005KT 9SM CLR M16/M18 A3048 RMK SLP326


Station Type Date Time Source
CYHU Decoded METAR 2018/12/13 15:00 UTC NOAA

Saint Hubert Airport , Canada (CYHU) 45-31N 073-25W
Dec 13, 2018 - 10:00 AM EST / 2018.12.13 1500 UTC
Wind: from the NNE (030 degrees) at 6 MPH (5 KT):0
Visibility: 9 mile(s):0
Sky conditions: clear
Temperature: 3 F (-16 C)
Windchill: -7 F (-22 C):2
Dew Point: 0 F (-18 C)
Relative Humidity: 84%
Pressure (altimeter): 30.48 in. Hg (1032 hPa)
ob: CYHU 131500Z AUTO 03005KT 9SM CLR M16/M18 A3048 RMK SLP326
cycle: 15

Station Type Date Time Source
CYHU TAF 2018/12/13 12:42 UTC NOAA

TAF CYHU 131138Z 1312/1412 VRB03KT P6SM FEW030
FM132000 04010KT P6SM BKN030
BECMG 1322/1323 04005KT
FM140900 VRB03KT 6SM -SN OVC020
RMK FCST BASED ON AUTO OBS. NXT FCST BY 131800Z


Example: see airport list